Darstellungsparameter: Aktuell verwendete Einstellungen:
Skalierung der Graphiken ... ?
xyx+y,   Skalierungsfaktor:      Skalierung: Modus: x, Faktor: 1
Darstellungszeitraum ... ?
Vom - - bis: - -   Zeitraum: 08.03.2021 - 08.03.2021
Min/Max/Avg-Anzeige ... ?
Zeige MMA aktuell
Zeige MMA Monat
Zeige MMA alles
Zeige --A aktuell
Zeige --A Monat
Zeige --A alles
Keine MMA-Anzeige
MMA:
Keine MMA-Graphiken
MMA-Basis: 08.03.2021 - 08.03.2021
Quicknavigation für Darstellung... ?
Tage:      1T, 2T, 3T, 5T -1T -2T -3T -5T +1T +2T +3T +5T
Wochen: 1W, 2W, 3W -1W -2W -3W +1W +2W +3W
Monate: 1M, 3M, 6M -1M -3M -6M +1M +3M +6M
Jahre:    1J, 3J, 5J, 10J -1J -3J -5J -10J +1J +3J +5J +10J
Nutze für die Darstellung ... ?
Originaldaten oder Mittelwerte auf ...
Stundenbasis Tagesbasis Wochenbasis
Monatsbasis Jahresbasis      Datenbasis: Original-Daten
Darstellen als:
Statistik (Auto) Statistik J:M      Darstellung:
Zur Graphik,    zurück zur Übersicht aller Sensoren.
 
Tabellarische Datenbersicht: ?
 
Sensor: Nr:Datum:Temp:Feuchte:Taupunkt:
Aussen-T/F 1 08-03-2021 01:00:00 -2.3 C 89 % -3.86 C
2 08-03-2021 01:05:00 -2.3 C 90 % -3.71 C
3 08-03-2021 01:10:00 -2.3 C 90 % -3.71 C
4 08-03-2021 01:15:00 -2.4 C 90 % -3.81 C
5 08-03-2021 01:20:00 -2.5 C 90 % -3.91 C
6 08-03-2021 01:25:00 -2.5 C 90 % -3.91 C
7 08-03-2021 01:30:00 -2.6 C 90 % -4.01 C
8 08-03-2021 01:35:00 -2.6 C 90 % -4.01 C
9 08-03-2021 01:40:00 -2.7 C 90 % -4.11 C
10 08-03-2021 01:45:00 -2.7 C 90 % -4.11 C
11 08-03-2021 01:50:00 -2.7 C 90 % -4.11 C
12 08-03-2021 01:55:00 -2.8 C 90 % -4.21 C
13 08-03-2021 02:00:00 -2.8 C 90 % -4.21 C
14 08-03-2021 02:05:00 -2.8 C 91 % -4.06 C
15 08-03-2021 02:10:00 -2.8 C 91 % -4.06 C
16 08-03-2021 02:15:00 -2.9 C 91 % -4.16 C
17 08-03-2021 02:20:00 -2.9 C 91 % -4.16 C
18 08-03-2021 02:25:00 -2.9 C 91 % -4.16 C
19 08-03-2021 02:30:00 -2.9 C 91 % -4.16 C
20 08-03-2021 02:35:00 -2.9 C 91 % -4.16 C
21 08-03-2021 02:40:00 -2.9 C 91 % -4.16 C
22 08-03-2021 02:45:00 -2.9 C 91 % -4.16 C
23 08-03-2021 02:50:00 -3 C 91 % -4.26 C
24 08-03-2021 02:55:00 -3 C 91 % -4.26 C
25 08-03-2021 03:00:00 -3.1 C 91 % -4.36 C
Sensor: Nr:Datum:Temp:Feuchte:Taupunkt:
Aussen-T/F 26 08-03-2021 03:05:00 -3.1 C 91 % -4.36 C
27 08-03-2021 03:10:00 -3.1 C 92 % -4.21 C
28 08-03-2021 03:15:00 -3 C 92 % -4.11 C
29 08-03-2021 03:20:00 -3 C 92 % -4.11 C
30 08-03-2021 03:25:00 -3.1 C 92 % -4.21 C
31 08-03-2021 03:30:00 -3.1 C 92 % -4.21 C
32 08-03-2021 03:35:00 -3.1 C 92 % -4.21 C
33 08-03-2021 03:40:00 -3.2 C 91 % -4.46 C
34 08-03-2021 03:45:00 -3.2 C 91 % -4.46 C
35 08-03-2021 03:50:00 -3.2 C 92 % -4.31 C
36 08-03-2021 03:55:00 -3.2 C 92 % -4.31 C
37 08-03-2021 04:00:00 -3.1 C 92 % -4.21 C
38 08-03-2021 04:05:00 -3.1 C 92 % -4.21 C
39 08-03-2021 04:10:00 -3.1 C 92 % -4.21 C
40 08-03-2021 04:15:00 -3.1 C 92 % -4.21 C
41 08-03-2021 04:20:00 -3.2 C 92 % -4.31 C
42 08-03-2021 04:25:00 -3.1 C 92 % -4.21 C
43 08-03-2021 04:30:00 -3 C 93 % -3.97 C
44 08-03-2021 04:35:00 -2.9 C 93 % -3.87 C
45 08-03-2021 04:40:00 -2.8 C 93 % -3.77 C
46 08-03-2021 04:45:00 -2.8 C 93 % -3.77 C
47 08-03-2021 04:50:00 -2.8 C 92 % -3.92 C
48 08-03-2021 04:55:00 -2.8 C 92 % -3.92 C
49 08-03-2021 05:00:00 -2.8 C 92 % -3.92 C
50 08-03-2021 05:05:00 -2.7 C 93 % -3.67 C
Sensor: Nr:Datum:Temp:Feuchte:Taupunkt:
Aussen-T/F 51 08-03-2021 05:10:00 -2.7 C 93 % -3.67 C
52 08-03-2021 05:15:00 -2.7 C 93 % -3.67 C
53 08-03-2021 05:20:00 -2.7 C 93 % -3.67 C
54 08-03-2021 05:25:00 -2.8 C 92 % -3.92 C
55 08-03-2021 05:30:00 -2.8 C 92 % -3.92 C
56 08-03-2021 05:35:00 -2.9 C 92 % -4.01 C
57 08-03-2021 05:40:00 -3.1 C 92 % -4.21 C
58 08-03-2021 05:45:00 -3.2 C 92 % -4.31 C
59 08-03-2021 05:50:00 -3.3 C 92 % -4.41 C
60 08-03-2021 05:55:00 -3.3 C 92 % -4.41 C
61 08-03-2021 06:00:00 -3.4 C 92 % -4.51 C
62 08-03-2021 06:05:00 -3.4 C 92 % -4.51 C
63 08-03-2021 06:10:00 -3.4 C 92 % -4.51 C
64 08-03-2021 06:15:00 -3.4 C 92 % -4.51 C
65 08-03-2021 06:20:00 -3.4 C 92 % -4.51 C
66 08-03-2021 06:25:00 -3.5 C 92 % -4.61 C
67 08-03-2021 06:30:00 -3.4 C 92 % -4.51 C
68 08-03-2021 06:35:00 -3.4 C 93 % -4.37 C
69 08-03-2021 06:40:00 -3.5 C 92 % -4.61 C
70 08-03-2021 06:45:00 -3.6 C 92 % -4.71 C
71 08-03-2021 06:50:00 -3.6 C 93 % -4.56 C
72 08-03-2021 06:55:00 -3.6 C 93 % -4.56 C
73 08-03-2021 07:00:00 -3.7 C 93 % -4.66 C
74 08-03-2021 07:05:00 -3.6 C 93 % -4.56 C
75 08-03-2021 07:10:00 -3.7 C 93 % -4.66 C
Sensor: Nr:Datum:Temp:Feuchte:Taupunkt:
Aussen-T/F 76 08-03-2021 07:15:00 -3.7 C 93 % -4.66 C
77 08-03-2021 07:20:00 -3.7 C 93 % -4.66 C
78 08-03-2021 07:25:00 -3.6 C 93 % -4.56 C
79 08-03-2021 07:30:00 -3.6 C 93 % -4.56 C
80 08-03-2021 07:35:00 -3.6 C 93 % -4.56 C
81 08-03-2021 07:40:00 -3.5 C 93 % -4.47 C
82 08-03-2021 07:45:00 -3.4 C 93 % -4.37 C
83 08-03-2021 07:50:00 -3.4 C 93 % -4.37 C
84 08-03-2021 07:55:00 -3.3 C 93 % -4.27 C
85 08-03-2021 08:00:00 -3.2 C 94 % -4.03 C
86 08-03-2021 08:05:00 -3.2 C 94 % -4.03 C
87 08-03-2021 08:10:00 -3.1 C 94 % -3.93 C
88 08-03-2021 08:15:00 -2.9 C 94 % -3.73 C
89 08-03-2021 08:20:00 -2.8 C 94 % -3.63 C
90 08-03-2021 08:25:00 -2.6 C 94 % -3.43 C
91 08-03-2021 08:30:00 -2.3 C 94 % -3.13 C
92 08-03-2021 08:35:00 -2.1 C 94 % -2.93 C
93 08-03-2021 08:40:00 -1.9 C 94 % -2.73 C
94 08-03-2021 08:45:00 -1.8 C 94 % -2.64 C
95 08-03-2021 08:50:00 -1.7 C 94 % -2.54 C
96 08-03-2021 08:55:00 -1.6 C 93 % -2.58 C
97 08-03-2021 09:00:00 -1.4 C 93 % -2.38 C
98 08-03-2021 09:05:00 -1.3 C 93 % -2.28 C
99 08-03-2021 09:10:00 -1.2 C 92 % -2.33 C
100 08-03-2021 09:15:00 -1 C 92 % -2.13 C
Sensor: Nr:Datum:Temp:Feuchte:Taupunkt:
Aussen-T/F 101 08-03-2021 09:20:00 -0.9 C 92 % -2.03 C
102 08-03-2021 09:25:00 -0.8 C 92 % -1.93 C
103 08-03-2021 09:30:00 -0.7 C 91 % -1.98 C
104 08-03-2021 09:35:00 -0.5 C 91 % -1.78 C
105 08-03-2021 09:40:00 -0.4 C 91 % -1.69 C
106 08-03-2021 09:45:00 -0.2 C 91 % -1.49 C
107 08-03-2021 09:50:00 0 C 90 % -1.44 C
108 08-03-2021 09:55:00 0.1 C 90 % -1.34 C
109 08-03-2021 10:00:00 0.3 C 90 % -1.14 C
110 08-03-2021 10:05:00 0.4 C 89 % -1.2 C
111 08-03-2021 10:10:00 0.7 C 89 % -0.9 C
112 08-03-2021 10:15:00 0.8 C 88 % -0.96 C
113 08-03-2021 10:20:00 1 C 88 % -0.76 C
114 08-03-2021 10:25:00 1.2 C 87 % -0.72 C
115 08-03-2021 10:30:00 1.3 C 87 % -0.62 C
116 08-03-2021 10:35:00 1.6 C 86 % -0.48 C
117 08-03-2021 10:40:00 1.7 C 85 % -0.54 C
118 08-03-2021 10:45:00 1.9 C 85 % -0.35 C
119 08-03-2021 10:50:00 2.1 C 84 % -0.31 C
120 08-03-2021 10:55:00 2.3 C 84 % -0.12 C
121 08-03-2021 11:00:00 2.6 C 84 % 0.18 C
122 08-03-2021 11:05:00 2.8 C 83 % 0.21 C
123 08-03-2021 11:10:00 2.9 C 82 % 0.14 C
124 08-03-2021 11:15:00 3.1 C 81 % 0.16 C
125 08-03-2021 11:20:00 3.2 C 81 % 0.26 C
Sensor: Nr:Datum:Temp:Feuchte:Taupunkt:
Aussen-T/F 126 08-03-2021 11:25:00 3.4 C 82 % 0.63 C
127 08-03-2021 11:30:00 3.7 C 81 % 0.75 C
128 08-03-2021 11:35:00 3.9 C 80 % 0.77 C
129 08-03-2021 11:40:00 4.1 C 80 % 0.97 C
130 08-03-2021 11:45:00 4.3 C 80 % 1.16 C
131 08-03-2021 11:50:00 4.3 C 78 % 0.81 C
132 08-03-2021 11:55:00 4.3 C 78 % 0.81 C
133 08-03-2021 12:00:00 4.5 C 79 % 1.18 C
134 08-03-2021 12:05:00 4.6 C 79 % 1.28 C
135 08-03-2021 12:10:00 4.7 C 79 % 1.38 C
136 08-03-2021 12:15:00 4.9 C 78 % 1.39 C
137 08-03-2021 12:20:00 5 C 77 % 1.31 C
138 08-03-2021 12:25:00 5.1 C 77 % 1.41 C
139 08-03-2021 12:30:00 5.2 C 76 % 1.32 C
140 08-03-2021 12:35:00 5.2 C 78 % 1.69 C
141 08-03-2021 12:40:00 5.3 C 77 % 1.6 C
142 08-03-2021 12:45:00 5.4 C 76 % 1.52 C
143 08-03-2021 12:50:00 5.3 C 76 % 1.42 C
144 08-03-2021 12:55:00 5.2 C 77 % 1.51 C
145 08-03-2021 13:00:00 5.3 C 77 % 1.6 C
146 08-03-2021 13:05:00 5.2 C 76 % 1.32 C
147 08-03-2021 13:10:00 5.2 C 77 % 1.51 C
148 08-03-2021 13:15:00 5.2 C 77 % 1.51 C
149 08-03-2021 13:20:00 5.3 C 78 % 1.78 C
150 08-03-2021 13:25:00 5.6 C 78 % 2.07 C
Sensor: Nr:Datum:Temp:Feuchte:Taupunkt:
Aussen-T/F 151 08-03-2021 13:30:00 5.6 C 76 % 1.71 C
152 08-03-2021 13:35:00 5.6 C 76 % 1.71 C
153 08-03-2021 13:40:00 5.7 C 77 % 1.99 C
154 08-03-2021 13:45:00 5.9 C 76 % 2 C
155 08-03-2021 13:50:00 5.9 C 76 % 2 C
156 08-03-2021 13:55:00 5.9 C 75 % 1.82 C
157 08-03-2021 14:00:00 5.8 C 75 % 1.72 C
158 08-03-2021 14:05:00 5.8 C 76 % 1.91 C
159 08-03-2021 14:10:00 5.8 C 75 % 1.72 C
160 08-03-2021 14:15:00 5.7 C 76 % 1.81 C
161 08-03-2021 14:20:00 5.8 C 77 % 2.09 C
162 08-03-2021 14:25:00 5.9 C 76 % 2 C
163 08-03-2021 14:30:00 5.9 C 76 % 2 C
164 08-03-2021 14:35:00 5.9 C 76 % 2 C
165 08-03-2021 14:40:00 6.1 C 76 % 2.2 C
166 08-03-2021 14:45:00 6.1 C 76 % 2.2 C
167 08-03-2021 14:50:00 6.1 C 76 % 2.2 C
168 08-03-2021 14:55:00 6.1 C 75 % 2.01 C
169 08-03-2021 15:00:00 6.1 C 75 % 2.01 C
170 08-03-2021 15:05:00 6.1 C 75 % 2.01 C
171 08-03-2021 15:10:00 6.1 C 75 % 2.01 C
172 08-03-2021 15:15:00 6 C 75 % 1.91 C
173 08-03-2021 15:20:00 6.1 C 75 % 2.01 C
174 08-03-2021 15:25:00 6 C 76 % 2.1 C
175 08-03-2021 15:30:00 6.1 C 76 % 2.2 C
Sensor: Nr:Datum:Temp:Feuchte:Taupunkt:
Aussen-T/F 176 08-03-2021 15:35:00 6.2 C 75 % 2.11 C
177 08-03-2021 15:40:00 6.2 C 75 % 2.11 C
178 08-03-2021 15:45:00 6.3 C 75 % 2.2 C
179 08-03-2021 15:50:00 6.3 C 75 % 2.2 C
180 08-03-2021 15:55:00 6.3 C 75 % 2.2 C
181 08-03-2021 16:00:00 6.3 C 75 % 2.2 C
182 08-03-2021 16:05:00 6.4 C 74 % 2.11 C
183 08-03-2021 16:10:00 6.4 C 74 % 2.11 C
184 08-03-2021 16:15:00 6.4 C 75 % 2.3 C
185 08-03-2021 16:20:00 6.4 C 74 % 2.11 C
186 08-03-2021 16:25:00 6.4 C 74 % 2.11 C
187 08-03-2021 16:30:00 6.4 C 74 % 2.11 C
188 08-03-2021 16:35:00 6.4 C 75 % 2.3 C
189 08-03-2021 16:40:00 6.4 C 74 % 2.11 C
190 08-03-2021 16:45:00 6.4 C 75 % 2.3 C
191 08-03-2021 16:50:00 6.4 C 75 % 2.3 C
192 08-03-2021 16:55:00 6.4 C 75 % 2.3 C
193 08-03-2021 17:00:00 6.3 C 75 % 2.2 C
194 08-03-2021 17:05:00 6.3 C 76 % 2.39 C
195 08-03-2021 17:10:00 6.3 C 76 % 2.39 C
196 08-03-2021 17:15:00 6.3 C 76 % 2.39 C
197 08-03-2021 17:20:00 6.3 C 76 % 2.39 C
198 08-03-2021 17:25:00 6.3 C 77 % 2.57 C
199 08-03-2021 17:30:00 6.3 C 77 % 2.57 C
200 08-03-2021 17:35:00 6.3 C 77 % 2.57 C
Sensor: Nr:Datum:Temp:Feuchte:Taupunkt:
Aussen-T/F 201 08-03-2021 17:40:00 6.3 C 77 % 2.57 C
202 08-03-2021 17:45:00 6.3 C 76 % 2.39 C
203 08-03-2021 17:50:00 6.2 C 76 % 2.29 C
204 08-03-2021 17:55:00 6.2 C 76 % 2.29 C
205 08-03-2021 18:00:00 6.2 C 76 % 2.29 C
206 08-03-2021 18:05:00 6.1 C 76 % 2.2 C
207 08-03-2021 18:10:00 6.1 C 76 % 2.2 C
208 08-03-2021 18:15:00 5.9 C 77 % 2.19 C
209 08-03-2021 18:20:00 5.8 C 77 % 2.09 C
210 08-03-2021 18:25:00 5.6 C 78 % 2.07 C
211 08-03-2021 18:30:00 5.3 C 78 % 1.78 C
212 08-03-2021 18:35:00 5.1 C 79 % 1.77 C
213 08-03-2021 18:40:00 4.8 C 80 % 1.65 C
214 08-03-2021 18:45:00 4.5 C 80 % 1.36 C
215 08-03-2021 18:50:00 4.3 C 81 % 1.34 C
216 08-03-2021 18:55:00 4.1 C 82 % 1.31 C
217 08-03-2021 19:00:00 3.8 C 83 % 1.19 C
218 08-03-2021 19:05:00 3.7 C 83 % 1.09 C
219 08-03-2021 19:10:00 3.5 C 84 % 1.06 C
220 08-03-2021 19:15:00 3.4 C 84 % 0.96 C
221 08-03-2021 19:20:00 3.2 C 85 % 0.93 C
222 08-03-2021 19:25:00 3.1 C 86 % 0.99 C
223 08-03-2021 19:30:00 2.9 C 86 % 0.8 C
224 08-03-2021 19:35:00 2.8 C 86 % 0.7 C
225 08-03-2021 19:40:00 2.7 C 86 % 0.6 C
Sensor: Nr:Datum:Temp:Feuchte:Taupunkt:
Aussen-T/F 226 08-03-2021 19:45:00 2.6 C 87 % 0.66 C
227 08-03-2021 19:50:00 2.4 C 88 % 0.62 C
228 08-03-2021 19:55:00 2.4 C 88 % 0.62 C
229 08-03-2021 20:00:00 2.3 C 88 % 0.52 C
230 08-03-2021 20:05:00 2.2 C 88 % 0.42 C
231 08-03-2021 20:10:00 2.1 C 89 % 0.48 C
232 08-03-2021 20:15:00 2.1 C 89 % 0.48 C
233 08-03-2021 20:20:00 1.9 C 89 % 0.28 C
234 08-03-2021 20:25:00 1.8 C 89 % 0.19 C
235 08-03-2021 20:30:00 1.7 C 89 % 0.09 C
236 08-03-2021 20:35:00 1.6 C 89 % -0.01 C
237 08-03-2021 20:40:00 1.4 C 89 % -0.21 C
238 08-03-2021 20:45:00 1.4 C 90 % -0.06 C
239 08-03-2021 20:50:00 1.4 C 90 % -0.06 C
240 08-03-2021 20:55:00 1.3 C 90 % -0.15 C
241 08-03-2021 21:00:00 1.2 C 90 % -0.25 C
242 08-03-2021 21:05:00 1.1 C 90 % -0.35 C
243 08-03-2021 21:10:00 1 C 91 % -0.3 C
244 08-03-2021 21:15:00 0.9 C 90 % -0.55 C
245 08-03-2021 21:20:00 0.8 C 91 % -0.5 C
246 08-03-2021 21:25:00 0.7 C 91 % -0.6 C
247 08-03-2021 21:30:00 0.7 C 91 % -0.6 C
248 08-03-2021 21:35:00 0.7 C 92 % -0.45 C
249 08-03-2021 21:40:00 0.7 C 92 % -0.45 C
250 08-03-2021 21:45:00 0.6 C 92 % -0.55 C
Sensor: Nr:Datum:Temp:Feuchte:Taupunkt:
Aussen-T/F 251 08-03-2021 21:50:00 0.6 C 92 % -0.55 C
252 08-03-2021 21:55:00 0.5 C 92 % -0.65 C
253 08-03-2021 22:00:00 0.4 C 92 % -0.74 C
254 08-03-2021 22:05:00 0.3 C 92 % -0.84 C
255 08-03-2021 22:10:00 0.3 C 92 % -0.84 C
256 08-03-2021 22:15:00 0.2 C 92 % -0.94 C
257 08-03-2021 22:20:00 0.2 C 93 % -0.79 C
258 08-03-2021 22:25:00 0.2 C 93 % -0.79 C
259 08-03-2021 22:30:00 0.2 C 93 % -0.79 C
260 08-03-2021 22:35:00 0.2 C 93 % -0.79 C
261 08-03-2021 22:40:00 0.2 C 93 % -0.79 C
262 08-03-2021 22:45:00 0.2 C 93 % -0.79 C
263 08-03-2021 22:50:00 0.2 C 93 % -0.79 C
264 08-03-2021 22:55:00 0.3 C 93 % -0.7 C

Legende:
   Min
   Max


Maximal/Minimal-Werte vom 08.03.2021 - 08.03.2021

Sensor Min Max Avg
Temp
(Aussen-T/F)
-3.7 °C
08-03-2021  07:00:00
6.4 °C
08-03-2021  16:05:00
1.21 °C
Feuchte
(Aussen-T/F)
74 %
08-03-2021  16:05:00
94 %
08-03-2021  08:00:00
85.82 %
Taupunkt
(Aussen-T/F)
-4.71 C
08-03-2021  06:45:00
2.57 C
08-03-2021  17:25:00
-0.97 C

Die Daten stammen von einer Davis Vantage Pro 2 Wetter-Station und werden unter Linux mit der Software wview2wettercgi und aufbereitet. Alle Angaben erfolgen ohne Gewähr für ihre Vollständigkeit oder Richtigkeit.
Kontakt: Rainer Krienke krienke@uni-koblenz.de . Meine Webseiten an der Uni Koblenz oder privat.
Version: $Revision: 0.78 $